Terminal Aerodrome Forecast
Issued by NWS

Home | Current Version | Previous Version | Text Only | Print | Product List | Glossary On
Versions: 1 2 3 4 5 6 7 8 9 10 11 12 13 14 15
000
FTAK31 PAJN 210500
TAFAJN
TAF
PAJN 210520Z 2106/2206 VRB04KT 6SM -SHRA BR SCT015 BKN035 OVC050
     FM210800 VRB04KT P6SM VCSH SCT025 BKN050
     FM211200 VRB03KT 6SM BR SCT003 BKN060
     FM211800 08011KT P6SM VCSH BKN050 WS020/06030KT
     FM212100 10013G21KT P6SM VCSH SCT025 OVC050 WS020/06040KT
     FM220300 10015G25KT P6SM VCSH SCT020 BKN040 OVC060
      WS020/06045KT=

USA.gov is the U.S. government's official web portal to all federal, state and local government web resources and services.